Time;durP1;ratioP1;P1;durP2;ratioP2;P2;SDS_P1;SDS_P2;PMS_P1;PMS_P2;Temp;Humidity;BMP_temperature;BMP_pressure;BME280_temperature;BME280_humidity;BME280_pressure;Samples;Min_cycle;Max_cycle;Signal;HPM_P1;HPM_P2
2023/05/17 00:00:50;;;;;;;2.97;1.07;;;20.60;55.80;;;;;;5068407;28;20197;-43
2023/05/17 00:03:22;;;;;;;1.73;0.90;;;20.50;55.80;;;;;;5061171;28;20647;-43
2023/05/17 00:05:53;;;;;;;3.17;0.93;;;20.50;55.80;;;;;;5064992;28;20210;-43
2023/05/17 00:08:25;;;;;;;2.47;1.07;;;20.50;55.80;;;;;;5068429;28;20189;-43
2023/05/17 00:10:55;;;;;;;2.20;0.90;;;20.50;55.80;;;;;;5070924;28;20228;-43
2023/05/17 00:13:25;;;;;;;3.50;1.20;;;20.50;55.80;;;;;;5068401;28;20193;-43
2023/05/17 00:15:56;;;;;;;1.40;0.80;;;20.50;55.90;;;;;;5059487;28;20209;-43
2023/05/17 00:18:26;;;;;;;1.80;0.80;;;20.50;55.90;;;;;;5058784;28;20226;-44
2023/05/17 00:20:59;;;;;;;2.43;0.90;;;20.40;55.90;;;;;;5063218;28;20193;-43
2023/05/17 00:23:30;;;;;;;1.80;1.00;;;20.40;55.80;;;;;;5057789;28;20643;-44
2023/05/17 00:25:57;;;;;;;2.60;1.00;;;20.40;55.90;;;;;;5060638;28;20201;-43
2023/05/17 00:28:27;;;;;;;1.70;0.90;;;20.40;55.90;;;;;;5066025;28;20221;-43
2023/05/17 00:30:57;;;;;;;1.37;0.83;;;20.40;55.90;;;;;;5067718;28;20697;-43
2023/05/17 00:33:26;;;;;;;2.20;0.93;;;20.40;56.00;;;;;;5068622;28;20628;-43
2023/05/17 00:35:57;;;;;;;1.73;0.87;;;20.30;55.90;;;;;;5065958;28;20201;-44
2023/05/17 00:38:28;;;;;;;1.83;1.00;;;20.40;56.00;;;;;;5069370;28;20330;-43
2023/05/17 00:40:58;;;;;;;1.70;0.93;;;20.30;56.00;;;;;;5068433;28;20662;-44
2023/05/17 00:43:34;;;;;;;2.20;1.00;;;20.30;56.00;;;;;;5055768;28;20845;-44
2023/05/17 00:46:09;;;;;;;2.37;1.13;;;20.30;56.00;;;;;;5066297;28;20223;-43
2023/05/17 00:48:41;;;;;;;4.10;1.33;;;20.30;56.10;;;;;;5051456;28;20275;-43
2023/05/17 00:51:18;;;;;;;2.10;0.93;;;20.30;56.10;;;;;;5066281;28;20208;-43
2023/05/17 00:53:48;;;;;;;4.87;1.27;;;20.30;56.10;;;;;;5051679;28;20232;-43
2023/05/17 00:56:17;;;;;;;1.80;0.83;;;20.30;56.10;;;;;;5045607;28;20216;-43
2023/05/17 00:58:49;;;;;;;2.63;1.10;;;20.20;56.10;;;;;;5060464;28;20205;-43
2023/05/17 01:01:21;;;;;;;2.63;1.13;;;20.20;56.10;;;;;;5068255;28;20196;-43
2023/05/17 01:03:51;;;;;;;3.80;1.20;;;20.20;56.10;;;;;;5067512;28;20225;-43
2023/05/17 01:06:20;;;;;;;3.30;0.90;;;20.20;56.10;;;;;;5064991;28;20667;-43
2023/05/17 01:08:51;;;;;;;4.40;1.23;;;20.20;56.10;;;;;;5048749;28;20233;-43
2023/05/17 01:11:42;;;;;;;2.13;1.10;;;20.20;56.10;;;;;;5041502;28;20220;-43
2023/05/17 01:14:58;;;;;;;2.00;0.90;;;20.20;56.10;;;;;;5065779;28;20193;-43
2023/05/17 01:17:46;;;;;;;1.73;0.70;;;20.20;56.10;;;;;;5060723;28;20219;-45
2023/05/17 01:20:40;;;;;;;2.00;1.07;;;20.20;56.10;;;;;;5053999;28;20222;-43
2023/05/17 01:24:02;;;;;;;1.40;0.90;;;20.20;56.10;;;;;;5053127;28;20217;-43
2023/05/17 01:26:46;;;;;;;2.83;0.97;;;20.10;56.10;;;;;;4973164;28;20235;-43
2023/05/17 01:29:21;;;;;;;2.47;0.83;;;20.10;56.20;;;;;;4997288;28;20235;-43
2023/05/17 01:32:04;;;;;;;1.83;1.03;;;20.10;56.30;;;;;;4968218;28;20212;-43
2023/05/17 01:34:34;;;;;;;2.33;0.90;;;20.10;56.20;;;;;;4970719;28;20294;-43
2023/05/17 01:37:06;;;;;;;2.10;0.90;;;20.10;56.20;;;;;;5030412;28;20557;-43
2023/05/17 01:39:35;;;;;;;1.70;1.20;;;20.10;56.20;;;;;;5034213;28;20205;-43
2023/05/17 01:42:08;;;;;;;1.30;1.00;;;20.10;56.20;;;;;;5028459;28;20223;-43
2023/05/17 01:45:11;;;;;;;1.37;0.90;;;20.10;56.20;;;;;;5031290;28;20183;-43
2023/05/17 01:48:22;;;;;;;3.03;1.27;;;20.10;56.20;;;;;;5028647;28;20196;-43
2023/05/17 01:50:57;;;;;;;3.57;1.10;;;20.10;56.20;;;;;;5012990;28;20279;-44
2023/05/17 01:53:47;;;;;;;1.63;0.97;;;20.00;56.30;;;;;;5027172;28;20202;-43
2023/05/17 01:56:30;;;;;;;2.30;1.30;;;20.00;56.20;;;;;;5020906;28;20190;-44
2023/05/17 01:59:03;;;;;;;2.83;1.00;;;20.00;56.20;;;;;;5043653;28;20233;-43
2023/05/17 02:01:33;;;;;;;2.53;1.17;;;20.00;56.30;;;;;;5015249;28;20198;-43
2023/05/17 02:04:04;;;;;;;2.43;1.00;;;20.00;56.20;;;;;;5040828;28;20254;-43
2023/05/17 02:06:37;;;;;;;4.00;1.40;;;20.00;56.20;;;;;;5035404;28;20214;-43
2023/05/17 02:09:07;;;;;;;2.50;1.00;;;20.00;56.20;;;;;;5032953;28;20257;-43
2023/05/17 02:11:42;;;;;;;2.80;0.90;;;20.00;56.20;;;;;;5032946;28;20203;-43
2023/05/17 02:14:17;;;;;;;3.37;1.23;;;20.00;56.30;;;;;;5036685;28;20718;-44
2023/05/17 02:16:50;;;;;;;2.30;1.13;;;19.90;56.20;;;;;;5051015;28;20528;-43
2023/05/17 02:19:21;;;;;;;2.20;1.00;;;19.90;56.30;;;;;;5036499;28;20221;-43
2023/05/17 02:21:54;;;;;;;2.53;0.90;;;19.90;56.30;;;;;;5051078;28;20190;-43
2023/05/17 02:24:24;;;;;;;4.57;1.33;;;19.90;56.30;;;;;;5037769;28;20214;-43
2023/05/17 02:26:55;;;;;;;1.27;0.83;;;19.90;56.30;;;;;;5044214;28;20198;-43
2023/05/17 02:29:24;;;;;;;3.33;1.30;;;19.90;56.30;;;;;;5050009;28;20751;-43
2023/05/17 02:31:51;;;;;;;1.97;1.07;;;19.90;56.20;;;;;;5058995;28;20189;-43
2023/05/17 02:34:19;;;;;;;2.67;0.97;;;19.90;56.20;;;;;;5061287;28;20198;-43
2023/05/17 02:36:48;;;;;;;4.47;1.33;;;19.90;56.30;;;;;;5069335;28;20194;-43
2023/05/17 02:39:17;;;;;;;1.90;0.93;;;19.90;56.20;;;;;;5067678;28;20213;-43
2023/05/17 02:41:46;;;;;;;2.53;1.20;;;19.90;56.30;;;;;;5051858;28;20234;-43
2023/05/17 02:44:17;;;;;;;2.67;1.10;;;19.80;56.20;;;;;;5062025;28;20226;-43
2023/05/17 02:46:47;;;;;;;2.80;1.10;;;19.90;56.30;;;;;;5058838;28;20194;-45
2023/05/17 02:49:18;;;;;;;2.73;1.20;;;19.80;56.30;;;;;;5068493;28;20685;-43
2023/05/17 02:51:51;;;;;;;3.53;1.23;;;19.80;56.30;;;;;;5060885;28;20574;-44
2023/05/17 02:54:21;;;;;;;1.40;0.90;;;19.80;56.30;;;;;;5050013;28;20229;-45
2023/05/17 02:56:51;;;;;;;2.40;1.00;;;19.80;56.30;;;;;;5061948;28;20631;-44
2023/05/17 02:59:33;;;;;;;1.53;1.03;;;19.80;56.30;;;;;;5063478;28;20229;-44
2023/05/17 03:02:04;;;;;;;2.77;1.40;;;19.80;56.30;;;;;;5054864;28;20195;-44
2023/05/17 03:04:34;;;;;;;3.10;1.20;;;19.80;56.30;;;;;;5059780;28;20226;-44
2023/05/17 03:07:05;;;;;;;1.60;0.97;;;19.80;56.30;;;;;;5041097;28;20206;-44
2023/05/17 03:09:37;;;;;;;2.03;1.20;;;19.80;56.90;;;;;;5067450;28;20784;-44
2023/05/17 03:12:08;;;;;;;1.60;1.27;;;19.80;56.30;;;;;;5068540;28;20193;-44
2023/05/17 03:14:38;;;;;;;2.30;1.17;;;19.80;56.30;;;;;;5070306;28;20629;-44
2023/05/17 03:17:09;;;;;;;1.70;1.00;;;19.80;56.30;;;;;;5066516;28;20200;-44
2023/05/17 03:19:40;;;;;;;1.73;1.00;;;19.70;56.30;;;;;;5048020;28;20225;-44
2023/05/17 03:22:11;;;;;;;2.87;1.33;;;19.70;56.30;;;;;;5050256;28;20202;-44
2023/05/17 03:24:42;;;;;;;2.43;1.40;;;19.80;56.40;;;;;;5057740;28;20615;-44
2023/05/17 03:27:12;;;;;;;2.97;1.10;;;19.70;56.30;;;;;;5064868;28;20200;-44
2023/05/17 03:29:45;;;;;;;3.40;1.13;;;19.70;56.30;;;;;;5069723;28;20222;-44
2023/05/17 03:32:15;;;;;;;1.80;1.17;;;19.70;56.90;;;;;;5065678;28;20198;-44
2023/05/17 03:34:46;;;;;;;1.57;1.17;;;19.70;56.30;;;;;;5045215;28;20539;-44
2023/05/17 03:37:18;;;;;;;2.57;1.30;;;19.80;56.30;;;;;;5064007;28;20284;-44
2023/05/17 03:39:49;;;;;;;2.60;1.33;;;19.70;56.30;;;;;;5059383;28;20202;-44
2023/05/17 03:42:19;;;;;;;2.17;1.20;;;19.70;56.30;;;;;;5047122;28;20221;-44
2023/05/17 03:44:49;;;;;;;3.40;1.50;;;19.70;56.30;;;;;;5043805;28;20218;-44
2023/05/17 03:47:16;;;;;;;2.70;1.20;;;19.70;56.30;;;;;;5057664;28;20210;-44
2023/05/17 03:49:47;;;;;;;3.27;1.47;;;19.70;56.30;;;;;;5049929;28;20594;-44
2023/05/17 03:52:20;;;;;;;2.50;1.20;;;19.70;56.40;;;;;;5055154;28;20291;-44
2023/05/17 03:55:03;;;;;;;1.90;1.10;;;19.70;56.30;;;;;;5066467;28;20282;-43
2023/05/17 03:57:35;;;;;;;2.03;1.23;;;19.60;56.30;;;;;;5060294;28;20209;-43
2023/05/17 04:00:10;;;;;;;2.73;1.23;;;19.70;56.30;;;;;;5061485;28;20248;-43
2023/05/17 04:02:44;;;;;;;2.80;1.33;;;19.60;56.30;;;;;;5037105;28;20518;-44
2023/05/17 04:05:13;;;;;;;2.83;1.27;;;19.70;56.30;;;;;;5034436;28;20264;-44
2023/05/17 04:07:44;;;;;;;2.83;1.20;;;19.60;56.30;;;;;;5051847;28;20677;-44
2023/05/17 04:10:14;;;;;;;3.90;1.47;;;19.70;56.40;;;;;;5047713;28;20589;-44
2023/05/17 04:12:43;;;;;;;1.87;1.20;;;19.60;56.30;;;;;;5052153;28;20222;-43
2023/05/17 04:15:16;;;;;;;2.87;1.30;;;19.60;56.40;;;;;;5062051;28;20697;-43
2023/05/17 04:17:50;;;;;;;2.20;1.37;;;19.60;56.40;;;;;;5056792;28;20602;-43
2023/05/17 04:20:21;;;;;;;1.90;1.30;;;19.60;56.40;;;;;;5042890;28;20960;-43
2023/05/17 04:22:50;;;;;;;1.67;1.37;;;19.60;56.40;;;;;;5055916;28;20600;-43
2023/05/17 04:25:22;;;;;;;2.57;1.43;;;19.60;56.40;;;;;;5069844;28;20210;-43
2023/05/17 04:27:49;;;;;;;4.00;1.37;;;19.60;56.40;;;;;;5063105;28;20194;-42
2023/05/17 04:30:17;;;;;;;2.87;1.30;;;19.60;56.40;;;;;;5035088;28;20206;-43
2023/05/17 04:32:52;;;;;;;2.37;1.30;;;19.60;56.40;;;;;;5029942;28;20752;-43
2023/05/17 04:35:20;;;;;;;3.60;1.60;;;19.60;56.40;;;;;;5039104;28;20583;-43
2023/05/17 04:37:52;;;;;;;2.47;1.30;;;19.60;56.40;;;;;;5031189;28;20617;-43
2023/05/17 04:40:21;;;;;;;3.47;1.57;;;19.60;56.40;;;;;;5045935;28;20252;-43
2023/05/17 04:42:53;;;;;;;2.97;1.23;;;19.60;56.50;;;;;;5045776;28;20730;-43
2023/05/17 04:45:22;;;;;;;2.67;1.47;;;19.50;56.40;;;;;;5040715;28;20214;-44
2023/05/17 04:47:54;;;;;;;3.80;1.77;;;19.60;56.50;;;;;;5027045;28;20557;-43
2023/05/17 04:50:25;;;;;;;4.73;1.50;;;19.60;56.60;;;;;;5029928;28;20539;-43
2023/05/17 04:52:56;;;;;;;2.17;1.30;;;19.60;56.60;;;;;;5032679;28;20200;-43
2023/05/17 04:55:31;;;;;;;3.13;1.43;;;19.60;56.50;;;;;;5042012;28;20561;-43
2023/05/17 04:58:02;;;;;;;4.13;1.53;;;19.60;56.60;;;;;;5040447;28;20194;-43
2023/05/17 05:00:32;;;;;;;5.03;1.70;;;19.60;56.60;;;;;;5037056;28;20209;-43
2023/05/17 05:03:07;;;;;;;3.70;1.43;;;19.60;56.50;;;;;;5051144;28;20193;-43
2023/05/17 05:05:36;;;;;;;3.47;1.40;;;19.60;56.50;;;;;;5041176;28;20230;-43
2023/05/17 05:08:08;;;;;;;4.70;1.23;;;19.60;56.50;;;;;;5039205;28;20280;-43
2023/05/17 05:10:38;;;;;;;2.80;1.53;;;19.60;56.50;;;;;;5029282;28;20198;-43
2023/05/17 05:13:13;;;;;;;2.23;1.37;;;19.60;56.40;;;;;;5043501;28;20211;-43
2023/05/17 05:15:45;;;;;;;3.00;1.50;;;19.50;56.40;;;;;;5046108;28;20194;-44
2023/05/17 05:18:17;;;;;;;4.43;1.80;;;19.50;56.40;;;;;;5036626;28;20900;-45
2023/05/17 05:20:50;;;;;;;4.47;1.70;;;19.50;56.30;;;;;;5046010;28;20532;-43
2023/05/17 05:23:21;;;;;;;3.53;1.47;;;19.60;56.40;;;;;;5043251;28;20197;-44
2023/05/17 05:25:51;;;;;;;4.70;1.80;;;19.50;56.40;;;;;;5052231;28;20246;-43
2023/05/17 05:28:21;;;;;;;2.70;1.57;;;19.50;56.40;;;;;;5047853;28;20241;-43
2023/05/17 05:30:50;;;;;;;3.93;1.77;;;19.50;56.40;;;;;;5021406;28;20199;-43
2023/05/17 05:33:23;;;;;;;3.80;1.67;;;19.50;56.30;;;;;;5037932;28;20555;-44
2023/05/17 05:35:52;;;;;;;4.07;1.60;;;19.50;56.30;;;;;;5029453;28;20214;-43
2023/05/17 05:38:20;;;;;;;4.87;1.87;;;19.60;56.30;;;;;;5041923;28;20242;-43
2023/05/17 05:40:52;;;;;;;5.13;1.80;;;19.50;56.20;;;;;;5054001;28;20207;-43
2023/05/17 05:43:25;;;;;;;6.27;1.63;;;19.60;56.30;;;;;;5037594;28;20659;-43
2023/05/17 05:45:55;;;;;;;4.37;2.10;;;19.60;56.20;;;;;;5015187;28;20217;-43
2023/05/17 05:48:26;;;;;;;5.47;2.10;;;19.50;56.20;;;;;;5044365;28;20198;-43
2023/05/17 05:51:02;;;;;;;2.97;1.50;;;19.50;56.20;;;;;;5017577;28;20605;-42
2023/05/17 05:53:37;;;;;;;9.97;1.90;;;19.50;56.20;;;;;;5037834;28;20182;-43
2023/05/17 05:56:08;;;;;;;4.57;1.70;;;19.50;56.40;;;;;;5045571;28;20206;-42
2023/05/17 05:58:39;;;;;;;5.10;2.17;;;19.60;57.20;;;;;;5048843;28;20198;-45
2023/05/17 06:01:12;;;;;;;8.63;2.80;;;19.60;57.80;;;;;;5043592;28;20712;-45
2023/05/17 06:03:42;;;;;;;5.33;2.60;;;19.60;57.80;;;;;;5035344;28;20268;-43
2023/05/17 06:06:11;;;;;;;9.30;2.80;;;19.60;57.90;;;;;;5029485;28;20898;-44
2023/05/17 06:08:44;;;;;;;6.83;2.80;;;19.60;57.80;;;;;;5044937;28;20206;-44
2023/05/17 06:11:20;;;;;;;8.17;2.60;;;19.50;57.70;;;;;;5053427;28;20204;-44
2023/05/17 06:13:51;;;;;;;8.97;2.53;;;19.60;57.60;;;;;;5052292;28;20198;-44
2023/05/17 06:16:19;;;;;;;6.57;2.40;;;19.50;57.50;;;;;;5031309;28;20222;-43
2023/05/17 06:18:47;;;;;;;6.57;2.50;;;19.60;57.40;;;;;;5047726;28;20206;-43
2023/05/17 06:21:18;;;;;;;14.20;2.60;;;19.60;57.30;;;;;;5038737;28;20191;-43
2023/05/17 06:23:50;;;;;;;6.77;2.70;;;19.50;57.10;;;;;;5048085;28;20205;-43
2023/05/17 06:26:21;;;;;;;4.80;2.50;;;19.60;57.20;;;;;;5051718;28;20183;-44
2023/05/17 06:28:52;;;;;;;7.37;2.20;;;19.60;57.10;;;;;;5046257;28;20230;-44
2023/05/17 06:31:24;;;;;;;5.60;2.27;;;19.50;57.10;;;;;;5045110;28;20213;-43
2023/05/17 06:33:53;;;;;;;8.23;2.80;;;19.60;57.10;;;;;;5047710;28;20252;-43
2023/05/17 06:36:25;;;;;;;16.63;5.23;;;19.50;57.20;;;;;;5040210;28;20211;-43
2023/05/17 06:38:54;;;;;;;24.83;6.33;;;19.60;57.70;;;;;;5045400;28;20190;-44
2023/05/17 06:41:23;;;;;;;17.53;6.67;;;19.60;57.70;;;;;;5038235;28;20329;-43
2023/05/17 06:43:56;;;;;;;21.50;6.60;;;19.60;57.60;;;;;;5041498;28;20905;-44
2023/05/17 06:46:25;;;;;;;18.97;5.90;;;19.60;57.60;;;;;;5047927;28;20214;-43
2023/05/17 06:48:55;;;;;;;13.13;6.07;;;19.60;57.50;;;;;;5038340;28;20620;-43
2023/05/17 06:51:27;;;;;;;14.47;5.83;;;19.60;57.40;;;;;;5038004;28;20728;-43
2023/05/17 06:53:56;;;;;;;12.60;5.60;;;19.60;57.40;;;;;;5035670;28;20241;-42
2023/05/17 06:56:41;;;;;;;12.47;5.87;;;19.60;57.30;;;;;;5044448;28;20296;-43
2023/05/17 06:59:10;;;;;;;14.33;5.30;;;19.60;57.40;;;;;;5057584;28;20194;-43
2023/05/17 07:01:41;;;;;;;11.73;5.07;;;19.60;57.40;;;;;;5036117;28;20283;-45
2023/05/17 07:04:09;;;;;;;13.03;5.17;;;19.60;57.30;;;;;;5042447;28;20273;-45
2023/05/17 07:06:40;;;;;;;10.43;4.90;;;19.60;57.50;;;;;;5047357;28;20210;-45
2023/05/17 07:09:07;;;;;;;11.13;4.17;;;19.70;57.60;;;;;;5033885;28;20222;-45
2023/05/17 07:11:38;;;;;;;10.83;4.50;;;19.80;57.70;;;;;;5028410;28;20711;-45
2023/05/17 07:14:10;;;;;;;9.77;4.37;;;19.80;57.80;;;;;;5026783;28;20268;-45
2023/05/17 07:16:43;;;;;;;13.20;4.60;;;19.90;57.60;;;;;;5039216;28;20187;-45
2023/05/17 07:19:14;;;;;;;11.97;3.90;;;20.00;57.50;;;;;;5033261;28;20218;-45
2023/05/17 07:21:44;;;;;;;9.47;3.87;;;20.10;57.30;;;;;;5028283;28;20723;-45
2023/05/17 07:24:16;;;;;;;9.53;4.40;;;20.20;57.10;;;;;;5022024;28;20201;-46
2023/05/17 07:26:46;;;;;;;10.97;4.07;;;20.30;57.00;;;;;;5037792;28;20210;-45
2023/05/17 07:29:18;;;;;;;8.60;3.93;;;20.40;57.00;;;;;;5054871;28;20569;-45
2023/05/17 07:31:49;;;;;;;9.03;3.50;;;20.50;56.70;;;;;;5061878;28;20224;-44
2023/05/17 07:34:18;;;;;;;10.33;3.70;;;20.60;56.40;;;;;;5062812;28;20209;-43
2023/05/17 07:36:47;;;;;;;9.47;3.17;;;20.70;57.30;;;;;;5054733;28;20197;-44
2023/05/17 07:39:16;;;;;;;7.07;2.90;;;20.70;58.70;;;;;;5065439;28;20205;-44
2023/05/17 07:41:45;;;;;;;9.93;3.10;;;20.70;59.20;;;;;;5054977;28;20198;-44
2023/05/17 07:44:12;;;;;;;10.17;3.30;;;20.80;59.20;;;;;;5063694;28;20229;-44
2023/05/17 07:46:39;;;;;;;8.47;2.83;;;20.80;58.90;;;;;;5061303;28;20216;-44
2023/05/17 07:49:11;;;;;;;8.03;3.07;;;20.80;58.90;;;;;;5067680;28;20216;-44
2023/05/17 07:51:42;;;;;;;9.87;3.07;;;20.80;59.40;;;;;;5058266;28;20568;-44
2023/05/17 07:54:23;;;;;;;7.43;2.93;;;20.90;59.80;;;;;;5061621;28;20374;-44
2023/05/17 07:56:54;;;;;;;6.63;2.77;;;20.90;60.70;;;;;;5061456;28;20221;-44
2023/05/17 07:59:24;;;;;;;5.33;2.60;;;20.90;60.10;;;;;;5062760;28;20198;-44
2023/05/17 08:01:53;;;;;;;5.40;2.23;;;20.90;60.60;;;;;;5045292;28;20224;-45
2023/05/17 08:04:23;;;;;;;6.10;2.53;;;20.90;60.40;;;;;;5056620;28;20197;-45
2023/05/17 08:06:56;;;;;;;6.47;2.13;;;20.90;60.30;;;;;;5058699;28;20197;-45
2023/05/17 08:09:27;;;;;;;7.63;2.80;;;20.90;60.30;;;;;;5066032;28;20267;-45
2023/05/17 08:11:55;;;;;;;6.17;2.10;;;20.90;60.70;;;;;;5065540;28;20212;-45
2023/05/17 08:14:26;;;;;;;6.47;2.27;;;20.90;60.50;;;;;;5064385;28;20194;-44
2023/05/17 08:17:01;;;;;;;5.83;2.47;;;21.00;60.50;;;;;;5067419;28;20194;-44
2023/05/17 08:19:32;;;;;;;5.33;2.50;;;21.00;60.40;;;;;;5048424;28;20201;-45
2023/05/17 08:22:02;;;;;;;9.00;2.60;;;21.00;60.80;;;;;;5064828;28;20371;-44
2023/05/17 08:24:34;;;;;;;9.10;2.87;;;21.00;60.80;;;;;;5068180;28;20426;-44
2023/05/17 08:27:06;;;;;;;6.30;2.00;;;21.00;61.00;;;;;;5049478;28;20198;-44
2023/05/17 08:29:37;;;;;;;5.33;2.00;;;21.00;61.00;;;;;;5065671;28;20739;-45
2023/05/17 08:32:07;;;;;;;5.43;2.10;;;21.00;60.80;;;;;;5058605;28;20662;-44
2023/05/17 08:34:39;;;;;;;5.13;2.10;;;21.00;60.50;;;;;;5062367;28;20192;-45
2023/05/17 08:37:11;;;;;;;5.87;2.10;;;21.10;61.20;;;;;;5067430;28;20193;-44
2023/05/17 08:39:43;;;;;;;6.23;2.00;;;21.00;61.30;;;;;;5063536;28;20227;-44
2023/05/17 08:42:16;;;;;;;6.00;2.70;;;21.00;60.60;;;;;;5063952;28;20248;-44
2023/05/17 08:44:54;;;;;;;7.10;1.73;;;21.00;60.50;;;;;;5046723;28;20229;-43
2023/05/17 08:47:28;;;;;;;9.90;2.90;;;21.00;60.70;;;;;;5049249;28;20711;-43
2023/05/17 08:50:20;;;;;;;17.07;4.10;;;21.00;60.20;;;;;;5056513;28;20209;-44
2023/05/17 08:52:51;;;;;;;17.00;5.20;;;21.10;59.50;;;;;;5058170;28;20575;-43
2023/05/17 08:55:22;;;;;;;17.13;6.10;;;21.10;59.30;;;;;;5070962;28;20245;-44
2023/05/17 08:57:52;;;;;;;15.00;4.77;;;21.20;60.60;;;;;;5061788;28;20635;-44
2023/05/17 09:00:23;;;;;;;12.90;5.00;;;21.30;59.30;;;;;;5054923;28;20701;-44
2023/05/17 09:03:01;;;;;;;13.50;4.40;;;21.30;58.80;;;;;;5043036;28;20195;-44
2023/05/17 09:05:29;;;;;;;8.90;3.87;;;21.30;58.40;;;;;;5051392;28;20237;-44
2023/05/17 09:07:59;;;;;;;9.03;4.17;;;21.40;58.60;;;;;;5057682;28;20202;-44
2023/05/17 09:10:32;;;;;;;12.73;4.00;;;21.50;58.30;;;;;;5035350;28;20607;-44
2023/05/17 09:13:03;;;;;;;9.87;3.50;;;21.50;57.90;;;;;;5068113;28;20184;-45
2023/05/17 09:15:35;;;;;;;10.80;3.80;;;21.50;57.50;;;;;;5064175;28;20673;-44
2023/05/17 09:18:06;;;;;;;11.77;4.03;;;21.60;57.90;;;;;;5053840;28;20228;-44
2023/05/17 09:21:04;;;;;;;10.23;3.50;;;21.60;58.30;;;;;;5072673;28;20261;-45
2023/05/17 09:23:32;;;;;;;9.00;3.13;;;21.70;57.90;;;;;;5057402;28;20205;-44
2023/05/17 09:26:06;;;;;;;5.87;2.70;;;21.80;57.40;;;;;;5054763;28;20202;-44
2023/05/17 09:28:47;;;;;;;7.77;2.70;;;21.70;57.50;;;;;;5049309;28;20222;-44
2023/05/17 09:31:18;;;;;;;8.97;2.70;;;21.80;57.00;;;;;;5054518;28;20210;-44
2023/05/17 09:33:50;;;;;;;8.87;3.17;;;21.80;57.00;;;;;;5042567;28;20221;-44
2023/05/17 09:36:36;;;;;;;8.80;3.23;;;21.90;57.20;;;;;;5065016;28;20288;-45
2023/05/17 09:39:13;;;;;;;5.17;2.53;;;21.80;57.10;;;;;;5065440;28;20546;-45
2023/05/17 09:41:48;;;;;;;8.57;2.70;;;21.80;56.90;;;;;;5047683;28;20253;-45
2023/05/17 09:44:17;;;;;;;4.97;2.13;;;21.90;56.80;;;;;;5053270;28;20209;-45
2023/05/17 09:46:48;;;;;;;5.33;2.23;;;21.90;56.80;;;;;;5053688;28;20334;-46
2023/05/17 09:49:19;;;;;;;6.10;2.50;;;22.00;56.40;;;;;;5066869;28;20217;-45
2023/05/17 09:51:49;;;;;;;4.87;2.17;;;22.00;56.70;;;;;;5052308;28;20201;-44
2023/05/17 09:54:19;;;;;;;5.40;1.93;;;22.00;56.50;;;;;;5063304;28;20670;-44
2023/05/17 09:56:53;;;;;;;5.27;2.13;;;22.00;56.50;;;;;;5063264;28;20639;-45
2023/05/17 09:59:29;;;;;;;5.73;2.30;;;22.10;56.40;;;;;;5030818;28;20630;-45
2023/05/17 10:02:00;;;;;;;5.03;1.60;;;22.10;56.40;;;;;;5062218;28;20200;-44
2023/05/17 10:04:36;;;;;;;4.97;2.00;;;22.00;57.70;;;;;;5054347;28;20197;-43
2023/05/17 10:07:18;;;;;;;7.33;1.83;;;21.90;58.20;;;;;;5047890;28;20557;-43
2023/05/17 10:09:50;;;;;;;7.03;2.23;;;21.90;59.20;;;;;;5070147;28;20190;-43
2023/05/17 10:12:22;;;;;;;4.53;1.57;;;21.80;59.60;;;;;;5069986;28;20935;-44
2023/05/17 10:14:58;;;;;;;9.67;2.10;;;21.70;59.60;;;;;;5053342;28;20281;-44
2023/05/17 10:17:32;;;;;;;4.80;1.90;;;21.60;59.80;;;;;;5053521;28;20236;-43
2023/05/17 10:20:05;;;;;;;5.50;1.70;;;21.60;60.70;;;;;;5075128;28;20366;-43
2023/05/17 10:22:38;;;;;;;6.50;1.83;;;21.60;60.30;;;;;;5052872;28;20650;-45
2023/05/17 10:25:07;;;;;;;4.33;1.87;;;21.50;60.40;;;;;;5051823;28;20217;-45
2023/05/17 10:27:38;;;;;;;2.90;1.70;;;21.50;59.90;;;;;;5066867;28;20199;-45
2023/05/17 10:30:08;;;;;;;4.63;1.37;;;21.40;59.70;;;;;;5054469;28;20229;-45
2023/05/17 10:32:44;;;;;;;4.60;1.87;;;21.40;58.90;;;;;;5061737;28;20625;-43
2023/05/17 10:35:16;;;;;;;4.80;1.50;;;21.40;60.40;;;;;;5066963;28;20210;-44
2023/05/17 10:37:53;;;;;;;10.20;2.00;;;21.40;60.20;;;;;;5049200;28;20883;-44
2023/05/17 10:40:29;;;;;;;4.17;1.53;;;21.30;59.80;;;;;;5072589;28;20197;-44
2023/05/17 10:42:59;;;;;;;5.17;1.43;;;21.30;59.80;;;;;;5068545;28;20643;-44
2023/05/17 10:45:30;;;;;;;6.03;1.70;;;21.30;59.70;;;;;;5070643;28;20245;-45
2023/05/17 10:48:02;;;;;;;4.73;1.17;;;21.30;60.10;;;;;;5063505;28;20186;-45
2023/05/17 10:50:40;;;;;;;4.77;1.63;;;21.20;60.30;;;;;;5051533;28;20205;-45
2023/05/17 10:53:27;;;;;;;8.17;1.90;;;21.20;60.80;;;;;;5054275;28;20593;-44
2023/05/17 10:55:59;;;;;;;4.53;1.60;;;21.10;61.20;;;;;;5075642;28;20220;-44
2023/05/17 10:58:32;;;;;;;7.13;2.00;;;21.10;61.10;;;;;;5065752;28;20201;-44
2023/05/17 11:01:03;;;;;;;5.90;1.47;;;21.10;60.30;;;;;;5074881;28;20785;-43
2023/05/17 11:03:35;;;;;;;5.97;1.83;;;21.10;60.20;;;;;;5063496;28;20244;-43
2023/05/17 11:06:14;;;;;;;5.50;1.53;;;21.10;60.30;;;;;;5054558;28;20214;-45
2023/05/17 11:09:15;;;;;;;4.87;1.63;;;21.10;60.40;;;;;;5077683;28;20224;-45
2023/05/17 11:12:11;;;;;;;5.50;1.50;;;21.10;60.30;;;;;;5049634;28;20217;-43
2023/05/17 11:14:57;;;;;;;6.33;1.90;;;21.10;60.40;;;;;;5036622;28;20220;-43
2023/05/17 11:17:52;;;;;;;6.80;1.60;;;21.00;60.30;;;;;;5060244;28;20639;-44
2023/05/17 11:20:38;;;;;;;5.37;1.87;;;21.00;60.90;;;;;;5067303;28;20369;-43
2023/05/17 11:23:25;;;;;;;4.10;1.60;;;21.00;61.20;;;;;;5050926;28;20203;-43
2023/05/17 11:25:53;;;;;;;5.70;1.60;;;21.00;61.20;;;;;;5053868;28;20210;-45
2023/05/17 11:28:21;;;;;;;3.73;1.20;;;21.00;61.10;;;;;;5054067;28;20302;-43
2023/05/17 11:31:02;;;;;;;3.40;1.40;;;21.00;60.80;;;;;;5058281;28;20208;-44
2023/05/17 11:34:00;;;;;;;3.33;1.30;;;21.00;60.90;;;;;;5046941;28;20255;-44
2023/05/17 11:36:30;;;;;;;6.13;1.60;;;21.00;60.60;;;;;;5056885;28;20218;-44
2023/05/17 11:39:26;;;;;;;4.07;1.47;;;21.00;60.50;;;;;;5048793;28;20291;-44
2023/05/17 11:41:56;;;;;;;6.20;1.40;;;21.00;60.50;;;;;;5030447;28;20677;-44
2023/05/17 11:44:37;;;;;;;4.03;1.43;;;21.00;60.50;;;;;;5049641;28;20212;-44
2023/05/17 11:47:08;;;;;;;5.23;1.70;;;21.00;60.70;;;;;;5068700;28;20218;-44
2023/05/17 11:49:39;;;;;;;3.10;1.47;;;21.00;61.00;;;;;;5026914;28;20194;-44
2023/05/17 11:52:11;;;;;;;5.63;1.40;;;21.00;61.00;;;;;;5048556;28;20202;-44
2023/05/17 11:54:42;;;;;;;4.40;1.50;;;21.00;60.80;;;;;;5050122;28;20210;-44
2023/05/17 11:57:16;;;;;;;7.70;1.77;;;21.00;60.70;;;;;;5056889;28;20659;-43
2023/05/17 11:59:48;;;;;;;3.97;1.10;;;20.90;61.00;;;;;;5051530;28;20227;-44
2023/05/17 12:02:42;;;;;;;6.00;1.77;;;20.90;60.80;;;;;;5047633;28;20672;-45
2023/05/17 12:05:19;;;;;;;2.33;1.40;;;21.00;60.80;;;;;;5065746;28;20220;-43
2023/05/17 12:07:53;;;;;;;4.53;1.30;;;21.00;60.70;;;;;;5048295;28;20229;-44
2023/05/17 12:10:23;;;;;;;3.40;1.33;;;20.90;60.30;;;;;;5050831;28;20635;-44
2023/05/17 12:12:55;;;;;;;2.97;1.47;;;20.90;60.60;;;;;;5062917;28;20287;-45
2023/05/17 12:15:32;;;;;;;4.20;1.30;;;20.90;60.50;;;;;;5041327;28;20201;-45
2023/05/17 12:18:09;;;;;;;3.57;1.30;;;20.90;60.10;;;;;;5029221;28;20200;-44
2023/05/17 12:20:38;;;;;;;3.73;1.20;;;20.90;60.20;;;;;;5062369;28;20279;-44
2023/05/17 12:23:09;;;;;;;4.07;1.30;;;20.90;59.30;;;;;;5059610;28;20224;-43
2023/05/17 12:25:41;;;;;;;4.40;1.33;;;20.90;59.30;;;;;;5062223;28;20224;-44
2023/05/17 12:28:21;;;;;;;5.23;1.77;;;20.90;59.50;;;;;;5065298;28;20224;-43
2023/05/17 12:30:53;;;;;;;3.83;1.33;;;20.90;59.40;;;;;;5065773;28;20245;-44
2023/05/17 12:33:26;;;;;;;3.93;1.30;;;20.90;59.60;;;;;;5048784;28;20212;-43
2023/05/17 12:36:00;;;;;;;2.60;1.37;;;20.90;59.80;;;;;;5053837;28;20243;-43
2023/05/17 12:38:33;;;;;;;2.63;1.30;;;20.90;59.80;;;;;;5060383;28;20196;-44
2023/05/17 12:41:21;;;;;;;2.53;1.20;;;21.00;59.10;;;;;;5049716;28;20292;-44
2023/05/17 12:43:52;;;;;;;3.07;1.20;;;21.00;58.60;;;;;;5064432;28;20209;-44
2023/05/17 12:46:40;;;;;;;3.50;1.47;;;20.90;58.80;;;;;;5052851;28;20298;-43
2023/05/17 12:49:11;;;;;;;2.97;1.27;;;20.90;58.20;;;;;;5042797;28;20784;-42
2023/05/17 12:51:46;;;;;;;4.43;1.40;;;21.00;58.40;;;;;;5050708;28;20197;-44
2023/05/17 12:54:31;;;;;;;2.97;1.17;;;21.00;59.00;;;;;;5064023;28;20298;-44
2023/05/17 12:57:12;;;;;;;3.00;1.27;;;20.90;58.90;;;;;;5063799;28;20198;-44
2023/05/17 12:59:52;;;;;;;2.97;1.40;;;21.00;59.00;;;;;;5043020;28;20197;-44
2023/05/17 13:02:22;;;;;;;3.63;1.43;;;20.90;58.60;;;;;;5042625;28;20206;-44
2023/05/17 13:04:53;;;;;;;2.80;1.17;;;20.90;57.60;;;;;;5049080;28;20550;-44
2023/05/17 13:07:25;;;;;;;3.97;1.57;;;21.00;57.30;;;;;;5050472;28;20279;-44
2023/05/17 13:09:57;;;;;;;4.33;1.30;;;21.00;57.60;;;;;;5059038;28;20202;-44
2023/05/17 13:12:28;;;;;;;2.60;1.00;;;21.00;57.80;;;;;;5051475;28;20214;-44
2023/05/17 13:14:59;;;;;;;3.20;1.30;;;21.00;57.50;;;;;;5052403;28;20536;-44
2023/05/17 13:17:43;;;;;;;3.63;0.93;;;21.00;57.20;;;;;;5053351;28;20190;-43